Time;durP1;ratioP1;P1;durP2;ratioP2;P2;SDS_P1;SDS_P2;PMS_P1;PMS_P2;Temp;Humidity;BMP_temperature;BMP_pressure;BME280_temperature;BME280_humidity;BME280_pressure;Samples;Min_cycle;Max_cycle;Signal;HPM_P1;HPM_P2
2020/12/08 00:01:03;;;;;;;26.55;14.60;;;2.60;99.90;;;;;;4997208;28;20378;-91
2020/12/08 00:03:32;;;;;;;25.83;14.75;;;2.70;99.90;;;;;;5012414;28;20065;-90
2020/12/08 00:06:00;;;;;;;27.27;13.73;;;2.80;99.90;;;;;;4999868;28;20035;-91
2020/12/08 00:08:25;;;;;;;24.00;14.18;;;2.80;99.90;;;;;;4994812;28;20046;-90
2020/12/08 00:11:03;;;;;;;26.25;14.15;;;2.90;99.90;;;;;;4994303;28;20034;-90
2020/12/08 00:13:44;;;;;;;;;;;;;;;;;;;;;
2020/12/08 00:16:16;;;;;;;24.65;14.85;;;3.00;99.90;;;;;;4996463;28;20018;-90
2020/12/08 00:18:42;;;;;;;25.52;14.38;;;3.00;99.90;;;;;;4995584;28;20401;-90
2020/12/08 00:21:27;;;;;;;25.27;15.20;;;3.00;99.90;;;;;;5002970;28;20093;-90
2020/12/08 00:23:55;;;;;;;26.52;15.20;;;3.00;99.90;;;;;;5004456;28;20041;-90
2020/12/08 00:26:20;;;;;;;26.67;15.05;;;3.10;99.90;;;;;;5015450;28;20033;-90
2020/12/08 00:28:49;;;;;;;28.65;16.10;;;3.10;99.90;;;;;;4998066;28;20031;-89
2020/12/08 00:31:14;;;;;;;30.70;17.52;;;3.10;99.90;;;;;;4996134;28;20047;-89
2020/12/08 00:33:40;;;;;;;31.10;17.63;;;3.10;99.90;;;;;;4995714;28;20141;-90
2020/12/08 00:36:14;;;;;;;31.13;17.25;;;3.10;99.90;;;;;;4995509;28;20026;-91
2020/12/08 00:39:02;;;;;;;;;;;3.10;99.90;;;;;;5002795;28;20045;-91
2020/12/08 00:44:47;;;;;;;27.13;14.43;;;3.10;99.90;;;;;;5015067;28;20069;-90
2020/12/08 00:47:23;;;;;;;26.02;15.20;;;3.10;99.90;;;;;;5012211;28;20054;-91
2020/12/08 00:49:54;;;;;;;24.13;15.05;;;3.10;99.90;;;;;;4995079;28;20034;-90
2020/12/08 00:52:29;;;;;;;;;;;;;;;;;;;;;
2020/12/08 00:55:13;;;;;;;;;;;;;;;;;;;;;
2020/12/08 00:57:41;;;;;;;;;;;3.10;99.90;;;;;;5015451;28;20050;-90
2020/12/08 01:00:09;;;;;;;25.33;13.45;;;3.00;99.90;;;;;;5013684;28;19909;-89
2020/12/08 01:02:35;;;;;;;23.40;13.32;;;3.00;99.90;;;;;;5013844;28;20030;-91
2020/12/08 01:05:10;;;;;;;26.98;14.88;;;2.90;99.90;;;;;;5015636;28;20084;-90
2020/12/08 01:07:42;;;;;;;27.48;15.95;;;2.90;99.90;;;;;;5014707;28;20065;-89
2020/12/08 01:10:09;;;;;;;26.48;15.70;;;2.90;99.90;;;;;;5014140;28;20029;-90
2020/12/08 01:12:39;;;;;;;24.48;14.85;;;2.90;99.90;;;;;;5008581;28;20037;-90
2020/12/08 01:15:10;;;;;;;26.08;15.95;;;2.90;99.90;;;;;;4997786;28;20065;-91
2020/12/08 01:17:44;;;;;;;26.92;15.68;;;2.90;99.90;;;;;;4996887;28;20026;-91
2020/12/08 01:20:23;;;;;;;23.98;14.75;;;2.90;99.90;;;;;;4997064;28;20029;-92
2020/12/08 01:22:58;;;;;;;;;;;;;;;;;;;;;
2020/12/08 01:25:27;;;;;;;31.08;16.67;;;2.90;99.90;;;;;;4997878;28;20022;-92
2020/12/08 01:27:56;;;;;;;26.08;16.33;;;2.90;99.90;;;;;;4996656;28;20057;-91
2020/12/08 01:30:24;;;;;;;26.83;15.45;;;2.90;99.90;;;;;;4997093;28;20050;-92
2020/12/08 01:32:52;;;;;;;27.50;15.05;;;2.90;99.90;;;;;;4996702;28;20486;-91
2020/12/08 01:35:18;;;;;;;24.02;14.57;;;2.80;99.90;;;;;;4996105;28;20057;-90
2020/12/08 01:37:58;;;;;;;;;;;;;;;;;;;;;
2020/12/08 01:40:27;;;;;;;25.48;16.33;;;2.80;99.90;;;;;;4997578;28;20489;-91
2020/12/08 01:42:59;;;;;;;24.25;13.57;;;2.70;99.90;;;;;;4995032;28;20045;-92
2020/12/08 01:45:25;;;;;;;24.52;14.45;;;2.70;99.90;;;;;;4996139;28;20026;-92
2020/12/08 01:47:57;;;;;;;24.25;13.77;;;2.60;99.90;;;;;;4996932;28;20069;-92
2020/12/08 01:50:24;;;;;;;19.15;11.95;;;2.60;99.90;;;;;;4996329;28;20065;-91
2020/12/08 01:52:53;;;;;;;19.73;11.23;;;2.50;99.90;;;;;;4996256;28;20026;-90
2020/12/08 01:55:21;;;;;;;19.63;12.35;;;2.40;99.90;;;;;;4995537;28;20025;-92
2020/12/08 01:58:58;;;;;;;22.15;12.07;;;2.30;99.90;;;;;;4995836;28;20050;-92
2020/12/08 02:01:00;;;;;;;16.88;11.38;;;2.30;99.90;;;;;;4996348;28;20030;-91
2020/12/08 02:03:37;;;;;;;17.33;10.80;;;2.20;99.90;;;;;;4997287;28;20073;-90
2020/12/08 02:06:09;;;;;;;19.90;11.73;;;2.20;99.90;;;;;;4999446;28;20035;-91
2020/12/08 02:08:37;;;;;;;16.65;10.75;;;2.10;99.90;;;;;;4980162;28;20026;-91
2020/12/08 02:11:07;;;;;;;17.48;11.35;;;2.10;99.90;;;;;;4994883;28;20070;-92
2020/12/08 02:13:36;;;;;;;17.50;10.50;;;2.00;99.90;;;;;;4995703;28;20034;-91
2020/12/08 02:16:24;;;;;;;17.90;10.45;;;2.00;99.90;;;;;;4996250;28;20030;-92
2020/12/08 02:18:52;;;;;;;16.92;10.75;;;2.00;99.90;;;;;;4995393;28;20390;-91
2020/12/08 02:21:33;;;;;;;17.95;11.27;;;1.90;99.90;;;;;;4996255;28;20522;-91
2020/12/08 02:23:59;;;;;;;19.30;11.77;;;2.00;99.90;;;;;;4996542;28;20426;-92
2020/12/08 02:26:29;;;;;;;18.15;11.30;;;1.90;99.90;;;;;;4994991;28;20026;-93
2020/12/08 02:28:57;;;;;;;18.95;11.52;;;1.90;99.90;;;;;;4995438;28;20504;-90
2020/12/08 02:31:23;;;;;;;16.88;10.40;;;1.90;99.90;;;;;;4995472;28;20034;-91
2020/12/08 02:34:01;;;;;;;;;;;;;;;;;;;;;
2020/12/08 02:36:27;;;;;;;17.30;10.57;;;1.90;99.90;;;;;;4996826;28;20040;-90
2020/12/08 02:38:59;;;;;;;17.58;11.40;;;1.90;99.90;;;;;;4994991;28;20117;-92
2020/12/08 02:41:35;;;;;;;17.77;11.13;;;1.90;99.90;;;;;;4995271;28;20030;-91
2020/12/08 02:44:00;;;;;;;17.90;11.35;;;1.80;99.90;;;;;;4995280;28;20125;-92
2020/12/08 02:46:38;;;;;;;18.45;11.13;;;1.80;99.90;;;;;;4994746;28;20057;-91
2020/12/08 02:49:04;;;;;;;17.38;11.18;;;1.70;99.90;;;;;;4994174;28;20084;-91
2020/12/08 02:51:30;;;;;;;17.38;10.77;;;1.70;99.90;;;;;;4995253;28;20026;-92
2020/12/08 02:54:03;;;;;;;16.48;11.25;;;1.70;99.90;;;;;;4994284;28;20026;-91
2020/12/08 02:56:48;;;;;;;18.17;10.68;;;1.70;99.90;;;;;;4994986;28;20528;-90
2020/12/08 02:59:14;;;;;;;17.67;10.48;;;1.60;99.90;;;;;;4995000;28;20533;-91
2020/12/08 03:01:42;;;;;;;17.15;10.60;;;1.60;99.90;;;;;;4995090;28;20054;-91
2020/12/08 03:04:11;;;;;;;15.43;10.30;;;1.60;99.90;;;;;;4994725;28;20034;-91
2020/12/08 03:06:42;;;;;;;17.95;10.90;;;1.50;99.90;;;;;;4995260;28;20478;-92
2020/12/08 03:09:12;;;;;;;17.05;9.70;;;1.50;99.90;;;;;;4994903;28;20022;-93
2020/12/08 03:11:46;;;;;;;14.98;9.32;;;1.50;99.90;;;;;;4996120;28;20104;-92
2020/12/08 03:14:12;;;;;;;20.65;10.43;;;1.50;99.90;;;;;;5006309;28;20057;-91
2020/12/08 03:16:57;;;;;;;17.25;9.43;;;1.40;99.90;;;;;;5014608;28;20039;-91
2020/12/08 03:19:23;;;;;;;17.77;10.25;;;1.50;99.90;;;;;;5010839;28;20011;-91
2020/12/08 03:21:51;;;;;;;17.05;10.48;;;1.50;99.90;;;;;;5018717;28;20029;-92
2020/12/08 03:24:19;;;;;;;17.40;10.05;;;1.40;99.90;;;;;;5018101;28;20050;-91
2020/12/08 03:26:45;;;;;;;15.95;9.15;;;1.40;99.90;;;;;;5009553;28;20026;-89
2020/12/08 03:29:15;;;;;;;16.35;10.35;;;1.40;99.90;;;;;;4995036;28;20359;-90
2020/12/08 03:31:41;;;;;;;17.48;9.90;;;1.40;99.90;;;;;;4996040;28;20109;-91
2020/12/08 03:34:09;;;;;;;16.27;9.60;;;1.40;99.90;;;;;;4994251;28;20479;-91
2020/12/08 03:36:35;;;;;;;17.50;9.48;;;1.40;99.90;;;;;;4995316;28;20027;-91
2020/12/08 03:39:08;;;;;;;19.25;10.27;;;1.30;99.90;;;;;;4994815;28;20367;-91
2020/12/08 03:41:34;;;;;;;17.75;9.70;;;1.30;99.90;;;;;;4994626;28;20025;-91
2020/12/08 03:44:00;;;;;;;14.65;8.77;;;1.30;99.90;;;;;;4993934;28;20030;-92
2020/12/08 03:46:26;;;;;;;15.23;9.20;;;1.30;99.90;;;;;;4994480;28;20038;-91
2020/12/08 03:49:00;;;;;;;17.10;10.32;;;1.30;99.90;;;;;;4994195;28;20031;-92
2020/12/08 03:51:33;;;;;;;14.13;8.55;;;1.30;99.90;;;;;;4996110;28;20050;-93
2020/12/08 03:53:59;;;;;;;14.40;8.52;;;1.20;99.90;;;;;;4994655;28;20030;-91
2020/12/08 03:56:32;;;;;;;16.75;9.15;;;1.30;99.90;;;;;;4995519;28;20050;-92
2020/12/08 03:58:57;;;;;;;16.05;8.50;;;1.20;99.90;;;;;;4994857;28;20486;-92
2020/12/08 04:01:23;;;;;;;16.00;9.63;;;1.20;99.90;;;;;;4996105;28;20033;-92
2020/12/08 04:04:00;;;;;;;16.50;8.90;;;1.20;99.90;;;;;;4994386;28;20125;-91
2020/12/08 04:06:29;;;;;;;15.80;9.05;;;1.20;99.90;;;;;;4980913;28;20042;-92
2020/12/08 04:08:57;;;;;;;16.65;9.32;;;1.20;99.90;;;;;;4998315;28;20026;-92
2020/12/08 04:11:34;;;;;;;16.80;8.95;;;1.10;99.90;;;;;;4999478;28;20466;-94
2020/12/08 04:14:06;;;;;;;14.93;8.70;;;1.10;99.90;;;;;;5004228;28;20033;-93
2020/12/08 04:16:35;;;;;;;14.70;9.07;;;1.10;99.90;;;;;;4998300;28;20026;-91
2020/12/08 04:19:03;;;;;;;14.18;9.00;;;1.10;99.90;;;;;;4997989;28;20033;-92
2020/12/08 04:21:41;;;;;;;15.23;8.88;;;1.10;99.90;;;;;;4998236;28;20033;-93
2020/12/08 04:24:06;;;;;;;14.35;8.75;;;1.00;99.90;;;;;;4998652;28;20151;-93
2020/12/08 04:26:33;;;;;;;13.98;8.20;;;1.00;99.90;;;;;;4998985;28;20117;-93
2020/12/08 04:29:02;;;;;;;14.68;9.48;;;1.00;99.90;;;;;;4998161;28;20022;-94
2020/12/08 04:31:28;;;;;;;15.57;8.88;;;1.00;99.90;;;;;;4997783;28;20069;-94
2020/12/08 04:33:56;;;;;;;15.82;8.95;;;1.00;99.90;;;;;;4997641;28;20029;-93
2020/12/08 04:36:29;;;;;;;17.08;9.45;;;1.00;99.90;;;;;;4997988;28;20501;-92
2020/12/08 04:38:55;;;;;;;15.93;9.07;;;1.00;99.90;;;;;;4997584;28;20498;-92
2020/12/08 04:41:23;;;;;;;15.70;8.82;;;0.90;99.90;;;;;;4997063;28;20030;-91
2020/12/08 04:43:51;;;;;;;15.27;9.02;;;0.90;99.90;;;;;;4998634;28;20037;-92
2020/12/08 04:46:21;;;;;;;15.80;9.25;;;0.90;99.90;;;;;;4997021;28;20480;-91
2020/12/08 04:48:50;;;;;;;15.10;8.88;;;0.90;99.90;;;;;;4997514;28;20031;-91
2020/12/08 04:51:22;;;;;;;17.77;9.55;;;0.90;99.90;;;;;;4996553;28;20107;-92
2020/12/08 04:53:51;;;;;;;16.02;9.18;;;1.00;99.90;;;;;;4997533;28;20049;-92
2020/12/08 04:56:16;;;;;;;16.52;9.95;;;1.00;99.90;;;;;;4998262;28;20061;-93
2020/12/08 04:58:43;;;;;;;17.38;9.88;;;1.10;99.90;;;;;;4997184;28;20378;-94
2020/12/08 05:01:29;;;;;;;17.48;9.90;;;1.10;99.90;;;;;;4998256;28;20022;-93
2020/12/08 05:04:00;;;;;;;20.88;11.23;;;1.20;99.90;;;;;;4996358;28;20042;-93
2020/12/08 05:06:29;;;;;;;17.95;11.10;;;1.30;99.90;;;;;;4996904;28;20086;-93
2020/12/08 05:09:08;;;;;;;19.52;11.18;;;1.30;99.90;;;;;;4997133;28;20030;-93
2020/12/08 05:11:35;;;;;;;17.80;10.52;;;1.30;99.90;;;;;;4996828;28;20033;-92
2020/12/08 05:14:03;;;;;;;18.65;11.50;;;1.30;99.90;;;;;;4996386;28;20026;-93
2020/12/08 05:16:29;;;;;;;17.27;10.57;;;1.30;99.90;;;;;;4996368;28;20031;-93
2020/12/08 05:19:11;;;;;;;17.05;10.52;;;1.20;99.90;;;;;;4996539;28;20022;-92
2020/12/08 05:22:09;;;;;;;18.55;10.32;;;1.20;99.90;;;;;;4997438;28;20022;-93
2020/12/08 05:24:37;;;;;;;21.50;11.45;;;1.20;99.90;;;;;;4988976;28;20039;-93
2020/12/08 05:27:14;;;;;;;21.60;11.50;;;1.10;99.90;;;;;;4997153;28;20034;-93
2020/12/08 05:29:43;;;;;;;17.35;11.07;;;1.10;99.90;;;;;;4996503;28;20050;-92
2020/12/08 05:32:30;;;;;;;18.10;11.98;;;1.00;99.90;;;;;;4996459;28;20030;-93
2020/12/08 05:34:56;;;;;;;18.00;11.30;;;1.10;99.90;;;;;;4996241;28;20037;-94
2020/12/08 05:37:22;;;;;;;18.08;12.65;;;1.10;99.90;;;;;;4995654;28;20049;-92
2020/12/08 05:39:51;;;;;;;20.65;11.73;;;1.10;99.90;;;;;;4996109;28;20026;-93
2020/12/08 05:42:37;;;;;;;18.52;11.98;;;1.10;99.90;;;;;;4995677;28;20018;-93
2020/12/08 05:45:07;;;;;;;19.58;11.88;;;1.10;99.90;;;;;;4996214;28;20096;-91
2020/12/08 05:47:42;;;;;;;19.25;12.23;;;1.20;99.90;;;;;;4996076;28;20022;-93
2020/12/08 05:50:21;;;;;;;20.85;12.52;;;1.20;99.90;;;;;;4995532;28;20026;-92
2020/12/08 05:52:58;;;;;;;20.50;12.40;;;1.20;99.90;;;;;;5004978;28;20034;-92
2020/12/08 05:55:31;;;;;;;19.02;12.88;;;1.30;99.90;;;;;;4994344;28;20035;-91
2020/12/08 05:58:06;;;;;;;22.27;13.50;;;1.30;99.90;;;;;;4995021;28;20081;-92
2020/12/08 06:00:35;;;;;;;24.33;14.10;;;1.30;99.90;;;;;;4994914;28;20572;-92
2020/12/08 06:03:12;;;;;;;21.52;14.73;;;1.40;99.90;;;;;;4994953;28;20071;-91
2020/12/08 06:05:49;;;;;;;23.85;14.40;;;1.40;99.90;;;;;;4975454;28;20390;-90
2020/12/08 06:08:21;;;;;;;24.88;14.80;;;1.50;99.90;;;;;;4976815;28;20035;-92
2020/12/08 06:11:22;;;;;;;;;;;;;;;;;;;;;
2020/12/08 06:13:53;;;;;;;24.33;14.85;;;1.50;99.90;;;;;;4991530;28;20036;-93
2020/12/08 06:16:23;;;;;;;28.98;17.98;;;1.60;99.90;;;;;;5015817;28;20080;-91
2020/12/08 06:18:54;;;;;;;31.58;17.95;;;1.60;99.90;;;;;;5016554;28;20026;-93
2020/12/08 06:24:14;;;;;;;27.75;16.27;;;1.70;99.90;;;;;;5015053;28;20029;-92
2020/12/08 06:26:44;;;;;;;30.42;17.77;;;1.70;99.90;;;;;;5015703;28;20462;-91
2020/12/08 06:32:30;;;;;;;28.83;17.75;;;1.70;99.90;;;;;;4996375;28;20034;-91
2020/12/08 06:38:26;;;;;;;28.60;15.57;;;1.70;99.90;;;;;;4985945;28;20042;-92
2020/12/08 06:41:05;;;;;;;27.17;15.82;;;1.80;99.90;;;;;;4994566;28;20026;-91
2020/12/08 06:43:59;;;;;;;25.98;16.23;;;1.80;99.90;;;;;;4995346;28;20034;-92
2020/12/08 06:46:38;;;;;;;26.30;16.35;;;1.80;99.90;;;;;;4994955;28;20030;-91
2020/12/08 06:49:29;;;;;;;25.55;15.82;;;1.80;99.90;;;;;;4979566;28;20094;-94
2020/12/08 06:52:08;;;;;;;;;;;;;;;;;;;;;
2020/12/08 06:54:50;;;;;;;24.50;15.90;;;1.90;99.90;;;;;;4995980;28;20025;-93
2020/12/08 06:57:43;;;;;;;27.38;17.17;;;1.90;99.90;;;;;;4994670;28;20057;-92
2020/12/08 07:00:19;;;;;;;30.63;17.70;;;2.00;99.90;;;;;;4995016;28;20054;-92
2020/12/08 07:06:14;;;;;;;31.25;16.88;;;2.00;99.90;;;;;;5002094;28;20034;-92
2020/12/08 07:08:44;;;;;;;33.83;18.52;;;2.00;99.90;;;;;;5015020;28;20034;-92
2020/12/08 07:11:26;;;;;;;34.28;19.10;;;2.00;99.90;;;;;;5001924;28;20026;-93
2020/12/08 07:14:54;;;;;;;;;;;;;;;;;;;;;
2020/12/08 07:17:41;;;;;;;32.40;18.55;;;2.10;99.90;;;;;;4995436;28;20038;-93
2020/12/08 07:20:45;;;;;;;;;;;;;;;;;;;;;
2020/12/08 07:24:02;;;;;;;29.55;17.90;;;2.10;99.90;;;;;;4985604;28;20031;-92
2020/12/08 07:26:59;;;;;;;;;;;;;;;;;;;;;
2020/12/08 07:29:52;;;;;;;;;;;;;;;;;;;;;
2020/12/08 07:33:03;;;;;;;;;;;;;;;;;;;;;
2020/12/08 07:36:15;;;;;;;;;;;;;;;;;;;;;
2020/12/08 07:39:03;;;;;;;39.90;20.38;;;2.20;99.90;;;;;;5014311;28;20052;-91
2020/12/08 07:44:59;;;;;;;37.75;20.23;;;2.30;99.90;;;;;;4919463;29;20041;-93
2020/12/08 07:47:37;;;;;;;37.10;21.05;;;2.30;99.90;;;;;;4975423;28;20026;-93
2020/12/08 07:51:07;;;;;;;;;;;;;;;;;;;;;
2020/12/08 07:54:25;;;;;;;;;;;;;;;;;;;;;
2020/12/08 08:00:23;;;;;;;;;;;;;;;;;;;;;
2020/12/08 08:03:37;;;;;;;35.42;19.08;;;2.40;99.90;;;;;;4994531;28;20036;-92
2020/12/08 08:06:39;;;;;;;30.58;18.88;;;2.40;99.90;;;;;;5027585;28;20029;-92
2020/12/08 08:12:49;;;;;;;32.47;19.00;;;2.40;99.90;;;;;;4969683;28;20037;-93
2020/12/08 08:15:58;;;;;;;32.95;19.60;;;2.50;99.90;;;;;;4999535;28;20237;-93
2020/12/08 08:22:34;;;;;;;32.97;18.75;;;2.50;99.90;;;;;;4969118;28;20370;-93
2020/12/08 08:25:47;;;;;;;31.60;18.40;;;2.50;99.90;;;;;;4989830;28;20030;-94
2020/12/08 08:28:28;;;;;;;;;;;;;;;;;;;;;
2020/12/08 08:31:26;;;;;;;33.45;19.73;;;2.50;99.90;;;;;;5019241;28;20026;-93
2020/12/08 08:34:13;;;;;;;;;;;;;;;;;;;;;
2020/12/08 08:37:11;;;;;;;37.17;21.63;;;2.60;99.90;;;;;;5018378;28;20040;-92
2020/12/08 08:40:01;;;;;;;40.40;22.70;;;2.60;99.90;;;;;;5015107;28;20030;-93
2020/12/08 08:45:26;;;;;;;35.28;21.17;;;2.60;99.90;;;;;;4991439;28;20053;-94
2020/12/08 08:47:54;;;;;;;;;;;2.70;99.90;;;;;;4997380;28;20545;-95
2020/12/08 08:50:20;;;;;;;40.05;22.98;;;2.70;99.90;;;;;;4996766;28;19913;-94
2020/12/08 08:53:08;;;;;;;38.00;21.98;;;2.70;99.90;;;;;;4997786;28;20022;-93
2020/12/08 08:55:53;;;;;;;;;;;;;;;;;;;;;
2020/12/08 08:58:29;;;;;;;43.53;23.88;;;2.70;99.90;;;;;;5017075;28;20058;-92
2020/12/08 09:01:00;;;;;;;39.67;22.70;;;2.70;99.90;;;;;;5016087;28;20038;-92
2020/12/08 09:03:55;;;;;;;36.97;22.52;;;2.80;99.90;;;;;;5016275;28;20084;-92
2020/12/08 09:06:22;;;;;;;40.92;23.58;;;2.80;99.90;;;;;;5014170;28;20030;-93
2020/12/08 09:09:14;;;;;;;;;;;;;;;;;;;;;
2020/12/08 09:11:52;;;;;;;40.33;23.23;;;2.90;99.90;;;;;;5016920;28;20022;-93
2020/12/08 09:14:30;;;;;;;43.38;25.15;;;2.90;99.90;;;;;;5015953;28;20064;-92
2020/12/08 09:17:12;;;;;;;42.80;23.70;;;2.90;99.90;;;;;;5025003;28;20034;-95
2020/12/08 09:19:52;;;;;;;39.60;22.70;;;2.90;99.90;;;;;;4999395;28;20486;-94
2020/12/08 09:22:42;;;;;;;;;;;;;;;;;;;;;
2020/12/08 09:25:43;;;;;;;;;;;;;;;;;;;;;
2020/12/08 09:28:11;;;;;;;39.90;21.88;;;3.00;99.90;;;;;;4983763;28;20122;-93
2020/12/08 09:30:44;;;;;;;36.08;22.10;;;3.10;99.90;;;;;;4982739;28;20113;-93
2020/12/08 09:33:37;;;;;;;37.73;22.83;;;3.10;99.90;;;;;;4993308;28;20030;-93
2020/12/08 09:36:29;;;;;;;40.42;23.15;;;3.10;99.90;;;;;;5009188;28;20330;-92
2020/12/08 09:42:56;;;;;;;;;;;;;;;;;;;;;
2020/12/08 09:46:11;;;;;;;44.60;26.08;;;3.20;99.90;;;;;;5012848;28;20035;-94
2020/12/08 09:52:28;;;;;;;;;;;;;;;;;;;;;
2020/12/08 09:55:35;;;;;;;41.95;23.73;;;3.40;99.90;;;;;;4984899;28;20056;-92
2020/12/08 10:04:16;;;;;;;47.72;26.25;;;3.50;99.90;;;;;;4975569;28;20055;-93
2020/12/08 10:07:16;;;;;;;41.17;24.35;;;3.50;99.90;;;;;;4993071;28;20046;-93
2020/12/08 10:09:43;;;;;;;42.72;25.38;;;3.60;99.90;;;;;;4997341;28;20037;-95
2020/12/08 10:12:17;;;;;;;41.53;24.05;;;3.60;99.90;;;;;;4996644;28;20041;-92
2020/12/08 10:14:53;;;;;;;;;;;;;;;;;;;;;
2020/12/08 10:17:58;;;;;;;;;;;;;;;;;;;;;
2020/12/08 10:24:06;;;;;;;;;;;;;;;;;;;;;
2020/12/08 10:29:32;;;;;;;40.20;23.50;;;3.90;99.90;;;;;;4984335;28;20027;-91
2020/12/08 10:32:14;;;;;;;39.30;23.17;;;3.90;99.90;;;;;;4976452;28;20026;-92
2020/12/08 10:34:49;;;;;;;37.38;21.83;;;4.10;99.90;;;;;;4976176;28;20042;-91
2020/12/08 10:38:29;;;;;;;;;;;;;;;;;;;;;
2020/12/08 10:41:18;;;;;;;;;;;;;;;;;;;;;
2020/12/08 10:47:56;;;;;;;;;;;;;;;;;;;;;
2020/12/08 10:55:09;;;;;;;;;;;;;;;;;;;;;
2020/12/08 11:01:20;;;;;;;;;;;;;;;;;;;;;
2020/12/08 11:15:10;;;;;;;;;;;;;;;;;;;;;
2020/12/08 11:22:35;;;;;;;34.10;23.58;;;6.40;99.90;;;;;;4942027;28;20032;-94
2020/12/08 11:35:59;;;;;;;;;;;;;;;;;;;;;
2020/12/08 11:43:27;;;;;;;28.38;21.08;;;7.00;99.90;;;;;;5010655;28;20042;-91
2020/12/08 11:45:57;;;;;;;27.42;20.63;;;6.70;99.90;;;;;;5022023;28;20064;-93
2020/12/08 11:48:25;;;;;;;26.65;20.67;;;6.50;99.90;;;;;;5024279;28;20037;-93
2020/12/08 11:50:57;;;;;;;27.50;20.42;;;6.40;99.90;;;;;;5011960;28;20011;-94
2020/12/08 11:53:23;;;;;;;28.95;20.60;;;6.20;99.90;;;;;;5000933;28;20030;-93
2020/12/08 11:55:50;;;;;;;28.17;21.63;;;6.10;99.90;;;;;;4988568;28;20128;-89
2020/12/08 11:58:16;;;;;;;28.50;20.60;;;6.00;99.90;;;;;;5020232;28;20018;-90
2020/12/08 12:00:41;;;;;;;30.08;20.98;;;5.90;99.90;;;;;;5012791;28;20055;-87
2020/12/08 12:03:07;;;;;;;30.23;20.42;;;5.80;99.90;;;;;;4998193;28;20014;-89
2020/12/08 12:05:33;;;;;;;28.92;20.33;;;5.80;99.90;;;;;;5004015;28;20034;-94
2020/12/08 12:08:01;;;;;;;30.45;20.65;;;5.80;99.90;;;;;;5027666;28;20014;-90
2020/12/08 12:10:45;;;;;;;27.45;19.83;;;5.80;99.90;;;;;;5029091;28;20112;-91
2020/12/08 12:13:10;;;;;;;29.05;20.90;;;5.80;99.90;;;;;;5028854;28;20049;-91
2020/12/08 12:15:46;;;;;;;30.15;21.13;;;5.90;99.90;;;;;;5029046;28;20038;-91
2020/12/08 12:18:12;;;;;;;29.77;19.95;;;5.90;99.90;;;;;;5028291;28;20045;-90
2020/12/08 12:20:38;;;;;;;32.65;20.67;;;6.00;99.90;;;;;;5016309;28;20018;-93
2020/12/08 12:23:07;;;;;;;29.92;20.75;;;6.00;99.90;;;;;;5010517;28;20409;-91
2020/12/08 12:25:37;;;;;;;30.67;22.15;;;6.00;99.90;;;;;;5028209;28;20037;-92
2020/12/08 12:28:03;;;;;;;33.72;22.48;;;6.00;99.90;;;;;;5044495;28;20044;-91
2020/12/08 12:30:55;;;;;;;31.90;23.02;;;5.90;99.90;;;;;;5031149;28;20090;-90
2020/12/08 12:33:21;;;;;;;32.05;22.40;;;5.90;99.90;;;;;;5025977;28;20052;-89
2020/12/08 12:35:48;;;;;;;32.00;21.42;;;5.90;99.90;;;;;;5012284;28;20022;-91
2020/12/08 12:38:14;;;;;;;31.98;21.73;;;6.00;99.90;;;;;;5013220;28;20145;-89
2020/12/08 12:40:40;;;;;;;31.95;21.58;;;6.00;99.90;;;;;;5007274;28;20109;-91
2020/12/08 12:43:06;;;;;;;29.73;21.33;;;6.00;99.90;;;;;;5029256;28;20077;-90
2020/12/08 12:45:38;;;;;;;31.52;22.70;;;6.00;99.90;;;;;;5003495;28;20046;-90
2020/12/08 12:48:04;;;;;;;32.05;21.80;;;6.00;99.90;;;;;;4986996;28;20664;-90
2020/12/08 12:50:30;;;;;;;30.88;22.15;;;5.90;99.90;;;;;;5001630;28;20052;-89
2020/12/08 12:52:58;;;;;;;31.52;21.67;;;5.80;99.90;;;;;;5016510;28;20033;-89
2020/12/08 12:55:24;;;;;;;29.45;20.23;;;5.70;99.90;;;;;;5033845;28;20029;-90
2020/12/08 12:57:49;;;;;;;31.17;20.35;;;5.60;99.90;;;;;;5035252;28;20103;-88
2020/12/08 13:00:16;;;;;;;28.02;20.10;;;5.60;99.90;;;;;;5013562;28;20037;-92
2020/12/08 13:02:42;;;;;;;32.63;21.55;;;5.50;99.90;;;;;;4998472;28;20026;-92
2020/12/08 13:05:07;;;;;;;29.23;19.90;;;5.50;99.90;;;;;;5003811;28;20068;-91
2020/12/08 13:07:35;;;;;;;28.10;18.77;;;5.50;99.90;;;;;;5019748;28;20022;-91
2020/12/08 13:10:00;;;;;;;28.48;18.73;;;5.50;99.90;;;;;;5014270;28;20033;-90
2020/12/08 13:12:26;;;;;;;26.52;18.67;;;5.40;99.90;;;;;;5010596;28;20033;-90
2020/12/08 13:14:51;;;;;;;28.95;19.75;;;5.40;99.90;;;;;;5011163;28;20273;-91
2020/12/08 13:17:18;;;;;;;27.63;19.88;;;5.40;99.90;;;;;;5007601;28;20029;-90
2020/12/08 13:19:44;;;;;;;30.27;20.52;;;5.40;99.90;;;;;;5011075;28;20026;-90
2020/12/08 13:22:09;;;;;;;28.50;19.70;;;5.40;99.90;;;;;;4995964;28;20030;-88
2020/12/08 13:24:35;;;;;;;27.27;18.83;;;5.50;99.90;;;;;;5008441;28;20040;-88
2020/12/08 13:27:01;;;;;;;27.88;19.85;;;5.50;99.90;;;;;;5017865;28;20033;-88
2020/12/08 13:29:26;;;;;;;29.83;20.88;;;5.50;99.90;;;;;;5019898;28;20025;-87
2020/12/08 13:31:57;;;;;;;30.83;19.38;;;5.60;99.90;;;;;;5028940;28;20131;-87
2020/12/08 13:34:27;;;;;;;26.92;18.58;;;5.60;99.90;;;;;;5028874;28;20026;-86
2020/12/08 13:37:04;;;;;;;28.88;19.92;;;5.70;99.90;;;;;;5023637;28;20019;-87
2020/12/08 13:39:30;;;;;;;30.10;19.85;;;5.60;99.90;;;;;;5020704;28;20057;-92
2020/12/08 13:41:57;;;;;;;30.52;20.70;;;5.60;99.90;;;;;;5017517;28;20045;-91
2020/12/08 13:44:23;;;;;;;28.98;19.90;;;5.50;99.90;;;;;;5020765;28;20038;-89
2020/12/08 13:46:49;;;;;;;29.08;19.25;;;5.50;99.90;;;;;;5021258;28;20044;-93
2020/12/08 13:49:17;;;;;;;30.38;19.73;;;5.50;99.90;;;;;;5009318;28;20124;-90
2020/12/08 13:51:46;;;;;;;29.70;19.38;;;5.50;99.90;;;;;;5020244;28;20022;-91
2020/12/08 13:54:11;;;;;;;26.80;18.70;;;5.50;99.90;;;;;;5017071;28;20472;-93
2020/12/08 13:56:37;;;;;;;28.30;19.58;;;5.40;99.90;;;;;;5005564;28;20026;-92
2020/12/08 13:59:03;;;;;;;27.08;19.48;;;5.40;99.90;;;;;;5005172;28;20492;-91
2020/12/08 14:01:28;;;;;;;31.10;20.77;;;5.30;99.90;;;;;;5030747;28;20024;-92
2020/12/08 14:03:54;;;;;;;29.42;20.50;;;5.30;99.90;;;;;;5015640;28;20026;-91
2020/12/08 14:06:20;;;;;;;27.75;18.92;;;5.20;99.90;;;;;;5007269;28;20057;-89
2020/12/08 14:08:46;;;;;;;28.52;19.30;;;5.10;99.90;;;;;;5010729;28;20046;-87
2020/12/08 14:11:13;;;;;;;27.38;19.58;;;5.10;99.90;;;;;;5021455;28;20110;-89
2020/12/08 14:13:38;;;;;;;30.15;19.35;;;5.10;99.90;;;;;;5006118;28;20033;-86
2020/12/08 14:16:04;;;;;;;29.85;20.17;;;5.10;99.90;;;;;;5014226;28;20030;-89
2020/12/08 14:18:31;;;;;;;27.80;19.00;;;5.10;99.90;;;;;;5004680;28;20396;-87
2020/12/08 14:20:57;;;;;;;29.25;19.95;;;5.10;99.90;;;;;;5006292;28;20113;-90
2020/12/08 14:23:24;;;;;;;28.00;19.42;;;5.20;99.90;;;;;;4995846;28;20241;-89
2020/12/08 14:25:50;;;;;;;27.27;19.55;;;5.20;99.90;;;;;;5005726;28;20068;-90
2020/12/08 14:28:16;;;;;;;27.70;18.73;;;5.20;99.90;;;;;;5016068;28;20045;-91
2020/12/08 14:30:45;;;;;;;29.33;21.05;;;5.30;99.90;;;;;;5016676;28;20600;-92
2020/12/08 14:33:16;;;;;;;31.00;20.48;;;5.30;99.90;;;;;;5000110;28;20033;-90
2020/12/08 14:35:41;;;;;;;28.92;20.52;;;5.30;99.90;;;;;;5000401;28;20026;-90
2020/12/08 14:40:42;;;;;;;29.48;19.88;;;5.30;99.90;;;;;;5083058;23;20096;-90
2020/12/08 14:43:10;;;;;;;28.80;19.45;;;5.30;99.90;;;;;;5022648;28;20022;-86
2020/12/08 14:45:36;;;;;;;28.48;19.40;;;5.30;99.90;;;;;;5029602;28;20064;-87
2020/12/08 14:48:02;;;;;;;29.83;19.67;;;5.30;99.90;;;;;;5051708;28;20006;-92
2020/12/08 14:50:27;;;;;;;28.33;19.75;;;5.20;99.90;;;;;;5029238;28;20041;-89
2020/12/08 14:52:53;;;;;;;27.27;19.75;;;5.10;99.90;;;;;;5030753;28;20036;-94
2020/12/08 14:55:19;;;;;;;29.67;20.13;;;5.10;99.90;;;;;;5029560;28;20038;-86
2020/12/08 14:57:45;;;;;;;32.58;21.42;;;5.10;99.90;;;;;;5029494;28;20030;-86
2020/12/08 15:00:22;;;;;;;30.83;21.45;;;5.10;99.90;;;;;;5035930;28;20483;-87
2020/12/08 15:02:48;;;;;;;27.50;19.70;;;5.10;99.90;;;;;;5044024;28;20464;-88
2020/12/08 15:05:13;;;;;;;28.98;19.83;;;5.00;99.90;;;;;;5036285;28;20060;-87
2020/12/08 15:07:39;;;;;;;31.63;21.52;;;5.00;99.90;;;;;;5004088;28;20679;-86
2020/12/08 15:10:07;;;;;;;28.85;19.98;;;4.90;99.90;;;;;;5013535;28;20080;-87
2020/12/08 15:12:35;;;;;;;31.88;22.10;;;4.90;99.90;;;;;;5017684;28;20030;-90
2020/12/08 15:15:01;;;;;;;32.55;21.58;;;4.80;99.90;;;;;;5010643;28;20032;-89
2020/12/08 15:17:27;;;;;;;31.52;22.67;;;4.80;99.90;;;;;;5003090;28;20089;-91
2020/12/08 15:19:53;;;;;;;31.88;21.80;;;4.80;99.90;;;;;;5003585;28;20058;-93
2020/12/08 15:22:21;;;;;;;32.78;22.55;;;4.80;99.90;;;;;;5008222;28;20022;-90
2020/12/08 15:24:47;;;;;;;29.30;21.35;;;4.70;99.90;;;;;;5018219;28;20033;-91
2020/12/08 15:27:13;;;;;;;29.17;20.45;;;4.70;99.90;;;;;;5005133;28;20018;-91
2020/12/08 15:29:38;;;;;;;29.33;20.65;;;4.70;99.90;;;;;;5007062;28;20050;-90
2020/12/08 15:32:04;;;;;;;29.73;20.70;;;4.60;99.90;;;;;;5007254;28;20554;-88
2020/12/08 15:34:32;;;;;;;29.02;20.15;;;4.70;99.90;;;;;;5005437;28;20022;-92
2020/12/08 15:37:03;;;;;;;28.17;19.27;;;4.60;99.90;;;;;;5007686;28;20100;-91